Time;durP1;ratioP1;P1;durP2;ratioP2;P2;SDS_P1;SDS_P2;PMS_P1;PMS_P2;Temp;Humidity;BMP_temperature;BMP_pressure;BME280_temperature;BME280_humidity;BME280_pressure;Samples;Min_cycle;Max_cycle;Signal;HPM_P1;HPM_P2
2022/11/29 10:41:39;;;;;;;7.95;4.93;;;;;;;7.18;100.00;101308.72;5057449;27;20392;-77
2022/11/29 10:44:05;;;;;;;5.80;3.30;;;;;;;7.00;100.00;101281.84;5033236;28;20411;-78
2022/11/29 10:46:35;;;;;;;4.32;2.15;;;;;;;7.22;100.00;101299.44;5047766;28;20075;-77
2022/11/29 10:49:03;;;;;;;2.97;2.03;;;;;;;7.28;100.00;101306.91;5033214;28;20041;-78
2022/11/29 10:51:29;;;;;;;5.50;2.55;;;;;;;7.28;100.00;101293.53;5015073;28;20107;-77
2022/11/29 10:53:56;;;;;;;6.20;4.15;;;;;;;7.50;100.00;101300.41;5048786;28;20041;-75
2022/11/29 10:56:34;;;;;;;6.70;4.05;;;;;;;7.71;100.00;101300.25;5065672;28;20075;-75
2022/11/29 10:59:04;;;;;;;4.57;2.40;;;;;;;7.85;100.00;101294.41;5038317;28;20033;-78
2022/11/29 11:01:32;;;;;;;5.70;3.35;;;;;;;8.00;100.00;101293.97;5037264;28;20033;-78
2022/11/29 11:03:59;;;;;;;7.35;2.25;;;;;;;8.08;100.00;101294.09;5034239;28;20576;-78
2022/11/29 11:06:55;;;;;;;6.00;3.35;;;;;;;8.18;100.00;101299.38;5000602;28;20047;-78
2022/11/29 11:09:34;;;;;;;5.50;2.72;;;;;;;8.16;100.00;101286.16;5045813;28;20037;-78
2022/11/29 11:12:03;;;;;;;13.27;7.72;;;;;;;8.32;100.00;101296.25;5018970;28;20045;-79
2022/11/29 11:14:31;;;;;;;11.35;6.97;;;;;;;8.45;100.00;101283.38;5029310;28;20034;-79
2022/11/29 11:17:25;;;;;;;7.03;3.78;;;;;;;8.64;100.00;101270.84;5045810;28;20087;-79
2022/11/29 11:19:59;;;;;;;6.68;3.45;;;;;;;8.67;100.00;101260.66;5012942;28;20030;-81
2022/11/29 11:22:27;;;;;;;4.85;2.65;;;;;;;8.80;100.00;101261.13;5029115;28;20049;-79
2022/11/29 11:25:02;;;;;;;3.58;2.17;;;;;;;8.82;100.00;101238.72;5029181;28;20026;-79
2022/11/29 11:27:38;;;;;;;4.53;2.53;;;;;;;9.01;100.00;101265.38;5029176;28;20034;-79
2022/11/29 11:30:28;;;;;;;5.47;1.98;;;;;;;9.06;100.00;101262.25;5029311;28;20463;-79
2022/11/29 11:33:28;;;;;;;5.38;2.58;;;;;;;9.28;100.00;101260.91;5028793;28;20030;-79
2022/11/29 11:36:21;;;;;;;6.05;2.40;;;;;;;9.46;100.00;101253.69;5045579;28;20076;-79
2022/11/29 11:38:49;;;;;;;;;;;;;;;9.40;100.00;101248.94;5029466;28;20129;-77
2022/11/29 11:44:33;;;;;;;4.55;1.73;;;;;;;9.36;100.00;101252.94;5029012;28;20053;-79
2022/11/29 11:47:00;;;;;;;3.97;2.17;;;;;;;9.30;100.00;101240.97;5029742;28;20156;-79
2022/11/29 11:49:35;;;;;;;5.68;2.17;;;;;;;9.36;100.00;101245.72;5028830;28;20029;-79
2022/11/29 11:52:04;;;;;;;3.17;1.80;;;;;;;9.35;100.00;101248.56;5020748;28;20520;-79
2022/11/29 11:54:30;;;;;;;2.22;1.42;;;;;;;9.34;100.00;101238.81;5015638;28;20387;-79
2022/11/29 11:56:56;;;;;;;5.22;2.28;;;;;;;9.34;100.00;101226.25;5015030;28;20040;-78
2022/11/29 11:59:24;;;;;;;5.90;2.50;;;;;;;9.32;100.00;101216.69;4998880;28;20038;-78
2022/11/29 12:01:50;;;;;;;2.97;1.55;;;;;;;9.38;100.00;101211.50;4998739;28;20065;-78
2022/11/29 12:04:34;;;;;;;3.08;2.03;;;;;;;9.48;100.00;101221.31;5015420;28;20038;-78
2022/11/29 12:07:11;;;;;;;2.85;1.52;;;;;;;9.43;100.00;101216.41;5031459;28;20383;-78
2022/11/29 12:09:39;;;;;;;5.75;2.70;;;;;;;9.46;100.00;101224.16;5031503;28;20026;-78
2022/11/29 12:12:11;;;;;;;9.40;4.82;;;;;;;9.54;100.00;101223.38;5016280;28;20065;-78
2022/11/29 12:15:04;;;;;;;9.77;2.95;;;;;;;9.70;100.00;101220.78;5031567;28;20064;-78
2022/11/29 12:17:30;;;;;;;5.47;2.38;;;;;;;9.69;100.00;101217.25;5016166;28;20030;-78
2022/11/29 12:19:59;;;;;;;3.85;2.67;;;;;;;9.59;100.00;101205.78;5016136;28;20034;-78
2022/11/29 12:22:29;;;;;;;5.35;2.33;;;;;;;9.61;100.00;101214.53;5031408;28;20380;-78
2022/11/29 12:24:59;;;;;;;4.82;2.20;;;;;;;9.64;100.00;101210.69;5014966;28;20026;-78
2022/11/29 12:27:25;;;;;;;5.22;1.98;;;;;;;9.65;100.00;101213.19;5015916;28;20087;-78
2022/11/29 12:29:50;;;;;;;2.42;1.63;;;;;;;9.86;98.78;101211.97;5014922;28;20034;-78
2022/11/29 12:32:51;;;;;;;4.55;2.00;;;;;;;10.09;96.47;101206.88;5014672;28;20495;-78
2022/11/29 12:35:48;;;;;;;6.68;1.52;;;;;;;10.11;88.23;101192.28;5007693;28;20046;-78
2022/11/29 12:38:25;;;;;;;5.15;2.38;;;;;;;10.25;87.07;101206.09;5015790;28;20030;-78
2022/11/29 12:41:15;;;;;;;2.97;1.10;;;;;;;10.27;92.33;101204.97;5030592;28;20365;-78
2022/11/29 12:43:48;;;;;;;3.67;1.50;;;;;;;10.19;91.72;101214.78;5030965;28;20460;-79
2022/11/29 12:46:24;;;;;;;2.60;1.60;;;;;;;10.12;90.68;101196.66;5030629;28;20037;-79
2022/11/29 12:49:17;;;;;;;2.85;1.55;;;;;;;10.21;94.93;101204.72;4998173;28;20045;-78
2022/11/29 12:51:52;;;;;;;14.63;7.30;;;;;;;10.33;89.65;101198.09;5015305;28;20061;-78
2022/11/29 12:54:39;;;;;;;13.20;6.50;;;;;;;10.31;91.03;101194.72;5015543;28;20088;-78
2022/11/29 12:57:32;;;;;;;8.02;3.78;;;;;;;10.24;90.50;101190.97;5030830;28;20480;-79
2022/11/29 13:00:15;;;;;;;11.65;6.13;;;;;;;10.26;88.90;101187.09;5015179;28;20058;-78
2022/11/29 13:02:47;;;;;;;6.22;2.63;;;;;;;10.27;88.39;101179.91;5013852;28;20073;-78
2022/11/29 13:05:32;;;;;;;7.70;6.43;;;;;;;10.34;87.72;101183.63;5013817;28;20048;-78
2022/11/29 13:08:11;;;;;;;10.65;6.97;;;;;;;10.29;87.13;101180.59;5014104;28;20061;-78
2022/11/29 13:10:51;;;;;;;14.52;9.02;;;;;;;10.24;85.41;101159.59;5030575;28;20042;-78
2022/11/29 13:13:22;;;;;;;4.97;2.50;;;;;;;10.36;85.04;101156.59;4997856;28;20034;-79
2022/11/29 13:16:00;;;;;;;19.40;11.60;;;;;;;10.28;85.96;101162.81;5014933;28;20022;-79
2022/11/29 13:18:37;;;;;;;22.55;11.98;;;;;;;10.14;87.13;101145.44;5029977;28;20030;-79
2022/11/29 13:21:21;;;;;;;11.70;6.78;;;;;;;10.11;88.38;101157.34;4997021;28;20034;-79
2022/11/29 13:24:01;;;;;;;13.68;4.57;;;;;;;10.08;86.51;101156.81;5029744;28;20066;-79
2022/11/29 13:26:27;;;;;;;17.67;9.52;;;;;;;10.05;86.31;101149.94;5030482;28;20045;-79
2022/11/29 13:28:53;;;;;;;5.65;2.90;;;;;;;9.95;86.22;101132.25;5013490;28;20395;-78
2022/11/29 13:31:20;;;;;;;12.52;5.75;;;;;;;9.83;86.79;101132.56;5029817;28;20037;-79
2022/11/29 13:33:55;;;;;;;18.65;9.48;;;;;;;9.77;87.63;101143.97;5029972;28;20030;-79
2022/11/29 13:36:25;;;;;;;12.05;5.38;;;;;;;9.62;88.72;101149.06;5029569;28;20100;-79
2022/11/29 13:38:53;;;;;;;10.43;3.97;;;;;;;9.57;87.04;101148.72;5013346;28;20124;-78
2022/11/29 13:41:51;;;;;;;8.00;3.78;;;;;;;9.52;88.27;101145.66;5014699;28;20050;-79
2022/11/29 13:44:30;;;;;;;12.77;7.30;;;;;;;9.45;89.13;101136.59;4991525;28;20050;-79
2022/11/29 13:47:13;;;;;;;6.65;3.88;;;;;;;9.43;88.98;101141.25;5013410;28;20068;-79
2022/11/29 13:49:48;;;;;;;;;;;;;;;9.41;90.34;101140.56;5013704;28;20057;-79
2022/11/29 13:52:44;;;;;;;9.40;5.03;;;;;;;9.37;92.31;101131.19;5013285;28;19983;-79
2022/11/29 13:55:10;;;;;;;5.78;3.05;;;;;;;9.35;91.29;101134.00;4994132;28;20076;-79
2022/11/29 13:57:57;;;;;;;6.05;3.78;;;;;;;9.34;88.99;101131.47;5013250;28;20089;-79
2022/11/29 14:00:27;;;;;;;6.00;2.60;;;;;;;9.19;90.51;101110.59;5014177;28;20033;-78
2022/11/29 14:02:55;;;;;;;4.85;3.47;;;;;;;9.20;91.64;101112.28;5029525;28;20030;-79
2022/11/29 14:05:26;;;;;;;7.88;3.92;;;;;;;9.25;91.70;101115.31;5013067;28;20026;-79
2022/11/29 14:08:43;;;;;;;9.73;5.65;;;;;;;9.24;91.69;101110.97;5013636;28;20076;-77
2022/11/29 14:11:11;;;;;;;6.93;3.55;;;;;;;9.19;93.94;101107.91;4965304;28;20408;-77
2022/11/29 14:13:57;;;;;;;5.75;3.58;;;;;;;9.20;94.21;101114.13;5038035;28;20052;-77
2022/11/29 14:16:46;;;;;;;5.03;3.55;;;;;;;9.17;93.36;101104.53;5024281;28;20124;-77
2022/11/29 14:19:27;;;;;;;7.05;3.58;;;;;;;9.21;93.32;101102.41;5047446;28;20045;-77
2022/11/29 14:22:02;;;;;;;9.00;5.07;;;;;;;9.15;93.34;101093.13;5015952;28;20132;-77
2022/11/29 14:27:08;;;;;;;4.75;2.42;;;;;;;9.11;94.20;101096.31;5033496;28;20037;-76
2022/11/29 14:29:52;;;;;;;4.95;1.95;;;;;;;9.09;94.03;101091.06;5012825;28;20116;-77
2022/11/29 14:32:57;;;;;;;16.58;7.55;;;;;;;9.06;94.94;101091.41;5013506;28;20533;-77
2022/11/29 14:35:33;;;;;;;6.97;3.20;;;;;;;9.01;95.22;101082.97;5026763;28;20056;-76
2022/11/29 14:38:09;;;;;;;9.68;5.10;;;;;;;9.04;96.13;101077.28;5012542;28;20026;-77
2022/11/29 14:40:41;;;;;;;15.07;8.15;;;;;;;8.79;96.13;101053.00;5002309;28;20037;-77
2022/11/29 14:43:21;;;;;;;15.70;7.63;;;;;;;8.97;95.98;101078.91;5029016;28;20128;-78
2022/11/29 14:46:08;;;;;;;29.45;13.88;;;;;;;8.89;96.13;101069.00;4999694;28;20034;-78
2022/11/29 14:48:34;;;;;;;18.40;9.27;;;;;;;8.78;95.46;101051.31;5015933;28;20506;-78
2022/11/29 14:51:14;;;;;;;14.48;7.25;;;;;;;8.91;96.05;101079.56;5015937;28;20041;-78
2022/11/29 14:53:41;;;;;;;20.58;9.55;;;;;;;8.88;96.32;101069.16;5033136;28;20033;-78
2022/11/29 14:56:33;;;;;;;9.63;5.25;;;;;;;8.87;95.92;101065.63;5032218;28;20113;-78
2022/11/29 14:59:36;;;;;;;14.00;7.63;;;;;;;8.86;96.01;101063.94;5033166;28;20029;-78
2022/11/29 15:02:32;;;;;;;11.20;5.43;;;;;;;8.88;96.28;101066.47;5015862;28;20111;-78
2022/11/29 15:05:13;;;;;;;15.85;8.50;;;;;;;8.86;96.56;101074.66;5015901;28;20026;-79
2022/11/29 15:08:24;;;;;;;11.77;5.15;;;;;;;8.84;96.51;101065.09;5033016;28;20107;-79
2022/11/29 15:10:57;;;;;;;18.83;13.50;;;;;;;8.74;96.86;101068.72;4999590;28;20045;-78
2022/11/29 15:13:35;;;;;;;8.50;5.75;;;;;;;8.75;96.34;101065.03;5015711;28;20029;-78
2022/11/29 15:16:37;;;;;;;12.93;8.27;;;;;;;8.72;97.65;101061.81;5031752;28;20034;-79
2022/11/29 15:19:12;;;;;;;20.05;11.57;;;;;;;8.53;98.04;101044.94;5032034;28;20033;-78
2022/11/29 15:22:05;;;;;;;20.67;9.77;;;;;;;8.64;98.46;101059.09;5015442;28;20026;-78
2022/11/29 15:24:31;;;;;;;16.50;9.73;;;;;;;8.54;99.20;101053.81;5016102;28;20037;-79
2022/11/29 15:26:59;;;;;;;14.48;7.20;;;;;;;8.52;98.77;101055.78;5033120;28;20030;-79
2022/11/29 15:29:25;;;;;;;12.98;7.03;;;;;;;8.52;99.43;101058.47;5019235;28;20029;-79
2022/11/29 15:31:57;;;;;;;11.63;5.82;;;;;;;8.52;99.85;101059.34;5035602;28;20117;-79
2022/11/29 15:34:31;;;;;;;8.68;6.10;;;;;;;8.52;99.98;101066.50;5035642;28;20060;-79
2022/11/29 15:36:58;;;;;;;12.38;6.03;;;;;;;8.48;100.00;101055.28;5036518;28;20129;-79
2022/11/29 15:39:30;;;;;;;7.38;4.22;;;;;;;8.48;100.00;101057.13;5018743;28;20033;-79
2022/11/29 15:42:08;;;;;;;16.48;9.85;;;;;;;8.42;100.00;101061.25;5018750;28;20468;-79
2022/11/29 15:44:34;;;;;;;7.57;4.28;;;;;;;8.35;100.00;101057.47;5018900;28;20025;-78
2022/11/29 15:47:16;;;;;;;14.65;5.57;;;;;;;8.27;100.00;101039.50;5035013;28;20052;-79
2022/11/29 15:49:42;;;;;;;20.03;10.63;;;;;;;8.28;100.00;101053.72;5035070;28;20059;-79
2022/11/29 15:52:11;;;;;;;8.65;5.93;;;;;;;8.22;100.00;101054.34;5036229;28;20259;-79
2022/11/29 15:54:41;;;;;;;10.02;4.75;;;;;;;8.15;100.00;101049.59;5034913;28;20029;-79
2022/11/29 15:57:27;;;;;;;7.72;4.22;;;;;;;8.10;100.00;101051.06;5035264;28;20065;-78
2022/11/29 15:59:58;;;;;;;18.58;9.20;;;;;;;7.96;100.00;101041.69;5018555;28;20037;-79
2022/11/29 16:02:26;;;;;;;28.33;15.32;;;;;;;7.95;100.00;101053.41;5018697;28;20514;-79
2022/11/29 16:04:56;;;;;;;19.13;10.48;;;;;;;7.88;100.00;101055.84;5018815;28;20120;-79
2022/11/29 16:07:23;;;;;;;7.07;3.70;;;;;;;7.69;100.00;101030.03;5034916;28;20040;-79
2022/11/29 16:09:53;;;;;;;5.90;4.07;;;;;;;7.76;100.00;101038.31;5034971;28;20124;-79
2022/11/29 16:12:19;;;;;;;21.48;12.35;;;;;;;7.65;100.00;101042.06;5002537;28;20095;-79
2022/11/29 16:14:50;;;;;;;8.90;5.70;;;;;;;7.55;100.00;101040.44;5034758;28;20037;-79
2022/11/29 16:17:18;;;;;;;13.25;10.18;;;;;;;7.31;100.00;101035.63;5034752;28;20111;-79
2022/11/29 16:19:45;;;;;;;13.48;8.77;;;;;;;7.18;100.00;101035.94;5034784;28;20030;-80
2022/11/29 16:22:11;;;;;;;11.85;7.25;;;;;;;7.05;100.00;101044.28;5050753;28;20372;-80
2022/11/29 16:24:39;;;;;;;10.52;6.60;;;;;;;6.94;100.00;101034.63;5035702;28;20529;-79
2022/11/29 16:27:05;;;;;;;12.20;7.47;;;;;;;6.80;100.00;101019.91;5034667;28;20030;-78
2022/11/29 16:29:43;;;;;;;18.48;10.27;;;;;;;6.63;100.00;100995.75;5034427;28;20026;-79
2022/11/29 16:32:12;;;;;;;16.95;8.45;;;;;;;6.83;100.00;101024.09;5034187;28;20029;-79
2022/11/29 16:34:41;;;;;;;12.25;4.75;;;;;;;6.82;100.00;101030.44;5034449;28;20103;-79
2022/11/29 16:37:17;;;;;;;10.63;6.07;;;;;;;6.75;100.00;101018.66;5034218;28;20025;-79
2022/11/29 16:39:45;;;;;;;12.98;5.38;;;;;;;6.89;100.00;101033.38;5033707;28;20068;-79
2022/11/29 16:42:23;;;;;;;20.20;10.15;;;;;;;6.88;100.00;101026.31;5017936;28;20067;-78
2022/11/29 16:45:02;;;;;;;28.38;12.65;;;;;;;6.87;100.00;101041.53;5002085;28;20038;-77
2022/11/29 16:47:58;;;;;;;21.42;11.05;;;;;;;6.87;100.00;101043.34;5017871;28;20037;-79
2022/11/29 16:50:31;;;;;;;42.67;16.55;;;;;;;6.76;100.00;101025.66;5050626;28;20049;-79
2022/11/29 16:53:36;;;;;;;45.95;19.70;;;;;;;6.81;100.00;101044.78;5001595;28;20123;-80
2022/11/29 16:56:07;;;;;;;29.92;14.60;;;;;;;6.79;100.00;101036.91;5046618;28;20044;-79
2022/11/29 16:58:33;;;;;;;20.25;9.82;;;;;;;6.85;100.00;101054.19;5001372;28;20041;-79
2022/11/29 17:00:58;;;;;;;15.88;7.82;;;;;;;6.85;100.00;101043.50;5033783;28;20029;-79
2022/11/29 17:03:24;;;;;;;25.27;11.48;;;;;;;6.96;100.00;101051.38;5050487;28;20037;-80
2022/11/29 17:05:49;;;;;;;16.85;6.85;;;;;;;6.94;100.00;101033.78;5017427;28;20049;-79
2022/11/29 17:08:15;;;;;;;17.40;8.50;;;;;;;6.88;100.00;101027.19;5050294;28;20061;-79
2022/11/29 17:10:41;;;;;;;21.83;10.77;;;;;;;6.86;100.00;101031.84;5017381;28;20091;-79
2022/11/29 17:13:10;;;;;;;12.10;5.35;;;;;;;6.91;100.00;101036.75;5034829;28;20053;-79
2022/11/29 17:15:44;;;;;;;26.60;12.30;;;;;;;6.87;100.00;101028.16;5001104;28;20041;-79
2022/11/29 17:18:10;;;;;;;52.33;23.88;;;;;;;6.82;100.00;101033.94;5033118;28;20434;-79
2022/11/29 17:20:35;;;;;;;29.58;14.75;;;;;;;6.92;100.00;101027.72;5017006;28;20037;-79
2022/11/29 17:23:01;;;;;;;40.15;23.48;;;;;;;6.92;100.00;101027.72;5016963;28;20026;-79
2022/11/29 17:25:26;;;;;;;24.33;12.52;;;;;;;6.95;100.00;101036.28;5033460;28;20048;-79
2022/11/29 17:27:52;;;;;;;12.57;6.60;;;;;;;6.99;100.00;101027.00;5034153;28;20029;-79
2022/11/29 17:30:18;;;;;;;11.35;7.28;;;;;;;7.06;100.00;101027.25;5033302;28;20034;-79
2022/11/29 17:32:43;;;;;;;48.70;25.45;;;;;;;7.15;100.00;101029.06;5033073;28;20049;-79
2022/11/29 17:35:09;;;;;;;35.13;19.23;;;;;;;7.07;100.00;101028.13;5016611;28;20490;-79
2022/11/29 17:37:35;;;;;;;27.00;14.70;;;;;;;6.98;100.00;101027.97;5033224;28;20036;-79
2022/11/29 17:40:00;;;;;;;24.95;11.65;;;;;;;7.00;100.00;101030.50;5034969;28;20038;-80
2022/11/29 17:42:32;;;;;;;14.55;6.85;;;;;;;7.05;100.00;101034.44;5004536;28;20037;-79
2022/11/29 17:44:57;;;;;;;21.77;12.13;;;;;;;7.05;100.00;101020.22;5034148;28;20025;-76
2022/11/29 17:47:23;;;;;;;19.23;9.65;;;;;;;7.14;100.00;101021.16;5010636;28;20530;-77
2022/11/29 17:49:48;;;;;;;18.95;9.07;;;;;;;7.12;100.00;101001.75;4997463;28;20106;-76
2022/11/29 17:52:14;;;;;;;16.33;9.98;;;;;;;7.13;100.00;101000.78;5013274;28;20065;-77
2022/11/29 17:54:40;;;;;;;18.92;11.85;;;;;;;7.31;100.00;101017.72;5045175;28;20040;-77
2022/11/29 17:57:06;;;;;;;23.85;13.52;;;;;;;7.34;100.00;101014.75;5026205;28;20086;-77
2022/11/29 17:59:32;;;;;;;21.48;12.50;;;;;;;7.38;100.00;101012.63;5052474;28;20438;-77
2022/11/29 18:02:00;;;;;;;17.92;9.65;;;;;;;7.35;100.00;101010.25;5006026;28;20068;-77
2022/11/29 18:04:26;;;;;;;19.27;8.98;;;;;;;7.21;100.00;101000.88;5013152;28;20032;-78
2022/11/29 18:06:52;;;;;;;8.32;5.35;;;;;;;7.26;100.00;101007.47;5008685;28;20029;-75
2022/11/29 18:09:18;;;;;;;14.32;7.40;;;;;;;7.32;100.00;101011.38;5016315;28;20133;-76
2022/11/29 18:11:45;;;;;;;11.52;7.40;;;;;;;7.34;100.00;101017.44;4981733;28;20034;-76
2022/11/29 18:14:19;;;;;;;13.45;6.80;;;;;;;7.34;100.00;101004.06;5023625;28;20510;-77
2022/11/29 18:16:44;;;;;;;10.65;5.13;;;;;;;7.35;100.00;101012.91;5032939;28;20041;-77
2022/11/29 18:19:15;;;;;;;12.93;4.75;;;;;;;7.34;100.00;101017.44;5018132;28;20101;-78
2022/11/29 18:21:41;;;;;;;10.80;4.60;;;;;;;7.33;100.00;101018.44;5052080;28;20033;-77
2022/11/29 18:24:07;;;;;;;9.00;4.47;;;;;;;7.03;100.00;100990.94;5034736;28;20033;-78
2022/11/29 18:26:35;;;;;;;15.30;7.25;;;;;;;7.21;100.00;101017.75;5016729;28;20414;-77
2022/11/29 18:29:02;;;;;;;13.07;8.10;;;;;;;7.22;100.00;101014.13;5050042;28;20041;-77
2022/11/29 18:31:34;;;;;;;15.65;8.57;;;;;;;7.22;100.00;101021.28;5014677;28;20029;-75
2022/11/29 18:34:01;;;;;;;10.95;5.80;;;;;;;7.21;100.00;101008.91;4999708;28;20138;-76
2022/11/29 18:36:32;;;;;;;18.20;8.13;;;;;;;7.22;100.00;101013.25;5015710;28;20036;-78
2022/11/29 18:39:09;;;;;;;12.30;5.30;;;;;;;7.20;100.00;101015.25;5030820;28;20037;-77
2022/11/29 18:41:36;;;;;;;22.15;12.05;;;;;;;7.24;100.00;101020.13;5030194;28;20108;-78
2022/11/29 18:44:07;;;;;;;30.58;14.45;;;;;;;7.20;100.00;101007.22;5007327;28;20110;-77
2022/11/29 18:46:35;;;;;;;36.17;17.52;;;;;;;7.21;100.00;101009.75;5030677;28;20490;-78
2022/11/29 18:49:04;;;;;;;12.43;5.45;;;;;;;7.21;100.00;101014.25;5013098;28;20033;-79
2022/11/29 18:51:30;;;;;;;13.88;7.85;;;;;;;7.16;100.00;101013.84;5012990;28;20034;-77
2022/11/29 18:53:56;;;;;;;10.30;5.47;;;;;;;7.19;100.00;101016.22;5030007;28;20034;-78
2022/11/29 18:56:25;;;;;;;9.63;4.93;;;;;;;7.21;100.00;101022.28;4980083;28;20037;-78
2022/11/29 18:58:55;;;;;;;12.48;6.25;;;;;;;7.24;100.00;101014.78;5029399;28;20112;-77
2022/11/29 19:01:22;;;;;;;14.85;5.85;;;;;;;7.21;100.00;101016.94;5017216;28;20487;-78
2022/11/29 19:03:49;;;;;;;11.85;3.92;;;;;;;7.12;100.00;101012.44;5012863;28;20477;-78
2022/11/29 19:06:18;;;;;;;42.33;16.90;;;;;;;7.07;100.00;101014.75;5033456;28;20112;-77
2022/11/29 19:08:44;;;;;;;35.78;16.13;;;;;;;7.12;100.00;100997.28;5033664;28;20077;-77
2022/11/29 19:11:19;;;;;;;7.80;2.85;;;;;;;7.13;100.00;100998.94;5031586;28;20107;-77
2022/11/29 19:13:45;;;;;;;9.35;4.70;;;;;;;7.21;100.00;101000.88;5018223;28;20030;-77
2022/11/29 19:16:14;;;;;;;10.38;6.47;;;;;;;7.26;100.00;101001.28;4996654;28;20139;-77
2022/11/29 19:18:41;;;;;;;17.85;9.63;;;;;;;7.22;100.00;101006.09;4987214;28;20088;-78
2022/11/29 19:21:11;;;;;;;15.63;7.38;;;;;;;7.21;100.00;101007.06;5055137;28;20526;-77
2022/11/29 19:23:37;;;;;;;18.30;8.55;;;;;;;7.35;100.00;101008.41;5030211;28;20056;-77
2022/11/29 19:26:04;;;;;;;16.88;6.85;;;;;;;7.34;100.00;101008.56;5001791;28;20455;-79
2022/11/29 19:28:30;;;;;;;9.60;4.82;;;;;;;7.37;100.00;101006.44;5035219;28;20037;-77
2022/11/29 19:30:56;;;;;;;8.50;2.88;;;;;;;7.47;100.00;101006.38;5012384;28;20037;-75
2022/11/29 19:33:21;;;;;;;12.73;4.53;;;;;;;7.54;100.00;101002.13;5030301;28;20067;-75
2022/11/29 19:35:47;;;;;;;12.13;6.53;;;;;;;7.56;100.00;101018.84;5018838;28;20025;-75
2022/11/29 19:38:14;;;;;;;10.07;3.97;;;;;;;7.58;100.00;101014.19;5017355;28;20060;-77
2022/11/29 19:40:40;;;;;;;16.33;7.97;;;;;;;7.62;100.00;101012.06;5033798;28;20543;-74
2022/11/29 19:43:05;;;;;;;18.00;8.07;;;;;;;7.62;100.00;101009.38;5033697;28;20120;-78
2022/11/29 19:45:31;;;;;;;12.50;4.60;;;;;;;7.61;100.00;101021.09;5001340;28;20072;-78
2022/11/29 19:47:57;;;;;;;5.30;2.20;;;;;;;7.71;100.00;101011.16;5000991;28;20041;-77
2022/11/29 19:50:22;;;;;;;8.40;4.15;;;;;;;7.75;100.00;101015.19;5035025;28;20033;-77
2022/11/29 19:52:48;;;;;;;9.77;4.53;;;;;;;7.80;100.00;101015.59;4999119;28;20494;-79
2022/11/29 19:55:14;;;;;;;9.55;3.30;;;;;;;7.83;100.00;101022.47;5013409;28;20041;-77
2022/11/29 19:57:39;;;;;;;10.55;4.97;;;;;;;7.78;100.00;101012.25;5035161;28;20033;-77
2022/11/29 20:00:06;;;;;;;6.45;2.83;;;;;;;7.75;100.00;101009.00;4994191;28;20468;-77
2022/11/29 20:02:32;;;;;;;14.38;8.30;;;;;;;7.75;100.00;101009.84;4989903;28;20260;-77
2022/11/29 20:04:57;;;;;;;5.32;3.22;;;;;;;7.79;100.00;101019.28;5011177;28;20129;-77
2022/11/29 20:07:23;;;;;;;8.77;4.28;;;;;;;7.80;100.00;101017.44;5035820;28;20025;-77
2022/11/29 20:09:48;;;;;;;11.18;4.28;;;;;;;7.82;100.00;101016.28;5051238;28;20103;-77
2022/11/29 20:12:14;;;;;;;4.65;3.05;;;;;;;7.81;100.00;101014.63;5034125;28;20025;-76
2022/11/29 20:14:40;;;;;;;6.65;3.42;;;;;;;7.78;100.00;101008.72;5034610;28;20083;-77
2022/11/29 20:17:05;;;;;;;2.05;1.75;;;;;;;7.88;100.00;101010.31;5002099;28;20111;-76
2022/11/29 20:19:31;;;;;;;11.38;5.38;;;;;;;7.96;100.00;101016.75;5018413;28;20035;-77
2022/11/29 20:21:57;;;;;;;7.95;4.30;;;;;;;7.93;100.00;101016.06;5018159;28;20040;-76
2022/11/29 20:24:23;;;;;;;10.45;4.40;;;;;;;7.95;100.00;101004.38;5002347;28;20041;-76
2022/11/29 20:26:48;;;;;;;6.55;2.70;;;;;;;7.91;100.00;101010.03;5018372;28;20041;-76
2022/11/29 20:29:15;;;;;;;14.80;5.80;;;;;;;7.96;100.00;101014.09;5002026;28;20396;-77
2022/11/29 20:31:42;;;;;;;14.88;7.93;;;;;;;7.96;100.00;101004.22;5002032;28;20033;-77
2022/11/29 20:34:12;;;;;;;11.63;5.10;;;;;;;8.00;100.00;101002.91;5017887;28;20037;-76
2022/11/29 20:36:48;;;;;;;7.70;4.38;;;;;;;8.12;100.00;101011.56;5017956;28;20052;-76
2022/11/29 20:39:44;;;;;;;5.93;4.05;;;;;;;8.06;100.00;101001.47;5017528;28;20455;-77
2022/11/29 20:42:28;;;;;;;15.73;9.20;;;;;;;8.07;100.00;101013.84;5017832;28;20040;-76
2022/11/29 20:44:57;;;;;;;10.82;5.18;;;;;;;8.03;100.00;101016.00;5017888;28;20132;-76
2022/11/29 20:47:25;;;;;;;19.95;7.43;;;;;;;8.04;100.00;101014.16;5001205;28;20367;-76
2022/11/29 20:49:51;;;;;;;12.75;5.43;;;;;;;7.99;100.00;101006.59;5017662;28;20041;-76
2022/11/29 20:52:37;;;;;;;14.50;7.38;;;;;;;8.01;100.00;101009.94;5001316;28;20044;-76
2022/11/29 20:55:03;;;;;;;9.48;5.15;;;;;;;8.03;100.00;101007.13;5017727;28;20037;-76
2022/11/29 20:57:29;;;;;;;7.13;4.38;;;;;;;8.10;100.00;101006.38;5001231;28;20061;-77
2022/11/29 20:59:55;;;;;;;12.93;7.05;;;;;;;8.06;100.00;101002.31;5017371;28;20060;-76
2022/11/29 21:02:24;;;;;;;12.45;6.38;;;;;;;7.96;100.00;100995.34;5001052;28;20077;-76
2022/11/29 21:04:50;;;;;;;11.25;5.45;;;;;;;7.98;100.00;100993.34;5001476;28;20073;-75
2022/11/29 21:07:16;;;;;;;9.48;5.88;;;;;;;8.03;100.00;100997.25;5033639;28;20443;-77
2022/11/29 21:09:42;;;;;;;10.00;5.53;;;;;;;7.94;100.00;100995.50;5001175;28;20033;-76
2022/11/29 21:12:08;;;;;;;15.18;5.88;;;;;;;7.92;100.00;100998.31;5000970;28;20079;-76
2022/11/29 21:14:34;;;;;;;25.30;8.65;;;;;;;7.89;100.00;101001.31;5033302;28;20146;-76
2022/11/29 21:17:00;;;;;;;26.10;12.50;;;;;;;7.90;100.00;100997.63;5017285;28;20471;-77
2022/11/29 21:19:26;;;;;;;8.80;4.93;;;;;;;7.91;100.00;101003.81;5017086;28;20037;-76
2022/11/29 21:22:01;;;;;;;25.63;9.88;;;;;;;7.97;100.00;101010.44;5033366;28;20032;-76
2022/11/29 21:24:41;;;;;;;14.20;5.15;;;;;;;7.99;100.00;100998.56;5016306;28;20396;-76
2022/11/29 21:27:12;;;;;;;21.88;10.43;;;;;;;8.04;100.00;101001.59;5017254;28;20038;-76
2022/11/29 21:29:39;;;;;;;19.48;8.82;;;;;;;8.03;100.00;101004.44;5017105;28;20040;-76
2022/11/29 21:32:05;;;;;;;34.33;11.88;;;;;;;8.05;100.00;101000.63;5033110;28;20493;-76
2022/11/29 21:34:32;;;;;;;15.93;7.63;;;;;;;8.04;100.00;100992.72;5016987;28;20037;-76
2022/11/29 21:36:58;;;;;;;14.80;7.03;;;;;;;8.12;100.00;101000.84;5017087;28;20116;-76
2022/11/29 21:39:34;;;;;;;16.20;5.70;;;;;;;8.18;100.00;100997.56;5016827;28;20064;-76
2022/11/29 21:42:00;;;;;;;10.15;5.00;;;;;;;8.18;100.00;100984.19;5016993;28;20120;-76
2022/11/29 21:44:26;;;;;;;7.97;4.07;;;;;;;8.18;100.00;100988.66;5016657;28;20108;-76
2022/11/29 21:46:52;;;;;;;7.97;4.80;;;;;;;8.14;100.00;100996.19;5000576;28;20501;-76
2022/11/29 21:49:17;;;;;;;15.05;5.18;;;;;;;8.08;100.00;100992.28;5016883;28;20077;-76
2022/11/29 21:51:43;;;;;;;16.15;6.85;;;;;;;8.09;100.00;100996.63;5000453;28;20490;-76
2022/11/29 21:54:09;;;;;;;9.00;4.05;;;;;;;8.20;100.00;101000.91;5033167;28;20083;-76
2022/11/29 21:56:34;;;;;;;16.95;8.18;;;;;;;8.20;100.00;100992.88;5032998;28;20029;-76
2022/11/29 21:59:00;;;;;;;9.23;3.90;;;;;;;8.18;100.00;100977.94;5000201;28;20045;-76
2022/11/29 22:01:26;;;;;;;14.10;5.88;;;;;;;8.20;100.00;100984.84;5000017;28;20061;-76
2022/11/29 22:03:52;;;;;;;11.32;4.65;;;;;;;8.32;100.00;100991.66;5032458;28;20033;-76
2022/11/29 22:06:19;;;;;;;10.40;4.93;;;;;;;8.35;100.00;100980.59;5032668;28;20403;-76
2022/11/29 22:08:46;;;;;;;11.23;3.85;;;;;;;8.43;100.00;100989.75;5032766;28;20037;-76
2022/11/29 22:11:14;;;;;;;14.40;5.18;;;;;;;8.43;100.00;100982.53;5016368;28;20506;-76
2022/11/29 22:16:26;;;;;;;10.73;4.78;;;;;;;8.41;100.00;100989.06;5018850;28;20067;-76
2022/11/29 22:18:52;;;;;;;6.40;3.85;;;;;;;8.32;100.00;100970.22;5032248;28;20083;-76
2022/11/29 22:21:18;;;;;;;5.38;3.22;;;;;;;8.50;100.00;100988.97;4999747;28;20033;-76
2022/11/29 22:23:44;;;;;;;6.55;3.00;;;;;;;8.54;100.00;100986.81;4999501;28;20033;-76
2022/11/29 22:26:11;;;;;;;2.90;1.83;;;;;;;8.55;100.00;100983.97;5032449;28;20041;-76
2022/11/29 22:28:37;;;;;;;8.20;2.40;;;;;;;8.58;100.00;100983.66;5032462;28;20066;-76
2022/11/29 22:31:08;;;;;;;11.43;3.53;;;;;;;8.59;100.00;100993.38;4999753;28;20029;-76
2022/11/29 22:33:34;;;;;;;11.48;3.40;;;;;;;8.61;100.00;100995.06;5016337;28;20037;-76